createdAt,value
2022-11-05T00:02:37.540Z,5.61
2022-11-05T00:05:24.134Z,5.69
2022-11-05T00:08:12.454Z,5.70
2022-11-05T00:10:42.339Z,5.66
2022-11-05T00:13:40.889Z,5.61
2022-11-05T00:16:32.604Z,5.68
2022-11-05T00:19:07.471Z,5.70
2022-11-05T00:21:56.210Z,5.75
2022-11-05T00:24:42.895Z,5.66
2022-11-05T00:27:12.742Z,5.73
2022-11-05T00:29:41.392Z,5.76
2022-11-05T00:32:10.097Z,5.87
2022-11-05T00:34:38.678Z,5.78
2022-11-05T00:37:07.313Z,5.79
2022-11-05T00:39:35.631Z,5.76
2022-11-05T00:42:21.549Z,5.80
2022-11-05T00:45:03.096Z,5.65
2022-11-05T00:47:50.268Z,5.63
2022-11-05T00:50:19.767Z,5.77
2022-11-05T00:52:57.972Z,5.80
2022-11-05T00:55:33.282Z,5.80
2022-11-05T00:58:04.051Z,5.85
2022-11-05T01:00:37.325Z,5.94
2022-11-05T01:03:09.285Z,6.05
2022-11-05T01:05:44.401Z,6.02
2022-11-05T01:08:14.834Z,5.97
2022-11-05T01:10:43.805Z,5.99
2022-11-05T01:13:14.436Z,5.93
2022-11-05T01:15:44.769Z,5.97
2022-11-05T01:18:13.554Z,6.02
2022-11-05T01:20:41.910Z,6.03
2022-11-05T01:23:13.688Z,6.00
2022-11-05T01:25:42.656Z,6.00
2022-11-05T01:28:11.567Z,5.95
2022-11-05T01:30:40.432Z,5.91
2022-11-05T01:33:10.387Z,5.91
2022-11-05T01:35:40.848Z,5.91
2022-11-05T01:38:09.436Z,5.93
2022-11-05T01:40:38.033Z,5.94
2022-11-05T01:43:15.579Z,5.89
2022-11-05T01:45:45.897Z,5.84
2022-11-05T01:48:19.820Z,5.82
2022-11-05T01:51:00.871Z,5.85
2022-11-05T01:53:37.462Z,5.90
2022-11-05T01:56:10.689Z,5.86
2022-11-05T01:58:48.634Z,5.83
2022-11-05T02:01:18.313Z,5.86
2022-11-05T02:03:54.174Z,5.86
2022-11-05T02:06:23.412Z,5.94
2022-11-05T02:09:02.951Z,5.97
2022-11-05T02:11:31.799Z,6.00
2022-11-05T02:14:00.779Z,6.00
2022-11-05T02:16:40.710Z,5.96
2022-11-05T02:19:48.139Z,5.94
2022-11-05T02:22:42.038Z,5.92
2022-11-05T02:25:47.436Z,5.90
2022-11-05T02:28:45.551Z,5.91
2022-11-05T02:31:27.241Z,5.86
2022-11-05T02:34:03.954Z,5.80
2022-11-05T02:36:46.865Z,5.81
2022-11-05T02:39:36.805Z,5.88
2022-11-05T02:42:22.563Z,5.88
2022-11-05T02:44:58.134Z,5.91
2022-11-05T02:47:43.409Z,5.90
2022-11-05T02:50:25.433Z,5.92
2022-11-05T02:53:04.033Z,5.94
2022-11-05T02:55:38.439Z,6.02
2022-11-05T02:58:07.538Z,6.05
2022-11-05T03:00:55.798Z,6.05
2022-11-05T03:03:36.463Z,6.10
2022-11-05T03:06:28.429Z,6.17
2022-11-05T03:09:30.488Z,6.08
2022-11-05T03:12:05.963Z,6.09
2022-11-05T03:14:44.770Z,6.09
2022-11-05T03:17:22.436Z,6.14
2022-11-05T03:20:07.158Z,6.12
2022-11-05T03:22:41.863Z,6.11
2022-11-05T03:25:15.782Z,6.02
2022-11-05T03:27:49.442Z,6.07
2022-11-05T03:30:20.939Z,6.08
2022-11-05T03:32:57.465Z,6.08
2022-11-05T03:35:30.623Z,6.09
2022-11-05T03:38:03.803Z,5.96
2022-11-05T03:40:36.038Z,5.95
2022-11-05T03:43:08.323Z,5.98
2022-11-05T03:45:42.160Z,5.95
2022-11-05T03:48:15.705Z,6.01
2022-11-05T03:50:54.093Z,5.90
2022-11-05T03:53:27.291Z,5.86
2022-11-05T03:56:03.740Z,5.84
2022-11-05T03:58:33.237Z,5.76
2022-11-05T04:01:03.558Z,5.78
2022-11-05T04:03:36.230Z,5.74
2022-11-05T04:06:25.433Z,5.77
2022-11-05T04:09:11.499Z,5.81
2022-11-05T04:11:57.961Z,5.78
2022-11-05T04:14:27.163Z,5.76
2022-11-05T04:17:09.121Z,5.80
2022-11-05T04:20:04.590Z,5.81
2022-11-05T04:22:54.410Z,5.81
2022-11-05T04:25:23.960Z,5.81
2022-11-05T04:27:52.660Z,5.83
2022-11-05T04:30:20.805Z,5.95
2022-11-05T04:33:06.982Z,5.94
2022-11-05T04:35:38.131Z,5.93
2022-11-05T04:38:10.076Z,5.92
2022-11-05T04:40:39.261Z,5.97
2022-11-05T04:43:14.569Z,6.06
2022-11-05T04:45:44.515Z,6.05
2022-11-05T04:48:13.411Z,6.02
2022-11-05T04:50:42.128Z,6.01
2022-11-05T04:53:12.083Z,6.08
2022-11-05T04:55:40.982Z,6.16
2022-11-05T04:58:09.659Z,6.08
2022-11-05T05:00:38.349Z,5.98
2022-11-05T05:03:07.287Z,5.98
2022-11-05T05:05:35.978Z,6.00
2022-11-05T05:08:05.351Z,6.02
2022-11-05T05:10:35.362Z,6.00
2022-11-05T05:13:03.691Z,5.99
2022-11-05T05:15:32.651Z,5.96
2022-11-05T05:18:00.929Z,5.92
2022-11-05T05:20:46.521Z,5.84
2022-11-05T05:23:15.100Z,5.75
2022-11-05T05:25:45.151Z,5.74
2022-11-05T05:28:13.767Z,5.68
2022-11-05T05:30:42.386Z,5.73
2022-11-05T05:33:11.278Z,5.74
2022-11-05T05:35:39.749Z,5.76
2022-11-05T05:38:08.357Z,5.78
2022-11-05T05:40:36.820Z,5.80
2022-11-05T05:43:06.446Z,5.82
2022-11-05T05:45:37.314Z,5.86
2022-11-05T05:48:06.451Z,5.83
2022-11-05T05:50:35.021Z,5.87
2022-11-05T05:53:09.069Z,5.90
2022-11-05T05:55:37.827Z,5.92
2022-11-05T05:58:07.625Z,5.87
2022-11-05T06:00:36.246Z,5.78
2022-11-05T06:03:06.404Z,5.78
2022-11-05T06:05:35.190Z,5.81
2022-11-05T06:08:03.547Z,5.81
2022-11-05T06:10:32.254Z,5.75
2022-11-05T06:13:01.374Z,5.74
2022-11-05T06:15:35.636Z,5.75
2022-11-05T06:18:04.843Z,5.72
2022-11-05T06:20:33.489Z,5.74
2022-11-05T06:23:01.862Z,5.81
2022-11-05T06:25:30.497Z,5.85
2022-11-05T06:27:58.872Z,5.86
2022-11-05T06:30:27.485Z,5.83
2022-11-05T06:32:57.169Z,5.80
2022-11-05T06:35:25.512Z,5.89
2022-11-05T06:37:53.796Z,5.97
2022-11-05T06:40:22.372Z,6.04
2022-11-05T06:42:53.754Z,6.15
2022-11-05T06:45:22.745Z,6.21
2022-11-05T06:47:58.588Z,6.24
2022-11-05T06:50:29.108Z,6.23
2022-11-05T06:52:58.218Z,6.25
2022-11-05T06:55:28.137Z,6.27
2022-11-05T06:57:56.976Z,6.30
2022-11-05T07:00:25.919Z,6.37
2022-11-05T07:02:55.854Z,6.43
2022-11-05T07:05:25.816Z,6.48
2022-11-05T07:07:54.098Z,6.54
2022-11-05T07:10:22.770Z,6.58
2022-11-05T07:12:51.647Z,6.64
2022-11-05T07:15:20.112Z,6.64
2022-11-05T07:17:48.813Z,6.64
2022-11-05T07:20:17.484Z,6.69
2022-11-05T07:22:47.478Z,6.68
2022-11-05T07:25:16.121Z,6.60
2022-11-05T07:27:44.699Z,6.52
2022-11-05T07:30:13.565Z,6.52
2022-11-05T07:32:42.487Z,6.45
2022-11-05T07:35:11.435Z,6.41
2022-11-05T07:37:49.213Z,6.42
2022-11-05T07:40:19.518Z,6.42
2022-11-05T07:42:49.642Z,6.42
2022-11-05T07:45:18.914Z,6.40
2022-11-05T07:47:48.758Z,6.38
2022-11-05T07:50:18.713Z,6.47
2022-11-05T07:52:49.017Z,6.47
2022-11-05T07:55:21.096Z,6.43
2022-11-05T07:57:51.687Z,6.56
2022-11-05T08:00:22.472Z,6.63
2022-11-05T08:03:07.400Z,6.71
2022-11-05T08:05:39.443Z,6.63
2022-11-05T08:08:10.706Z,6.67
2022-11-05T08:10:40.332Z,6.70
2022-11-05T08:13:09.851Z,6.74
2022-11-05T08:15:39.208Z,6.53
2022-11-05T08:18:11.473Z,6.47
2022-11-05T08:20:41.503Z,6.43
2022-11-05T08:23:12.010Z,6.53
2022-11-05T08:25:41.225Z,6.58
2022-11-05T08:28:12.911Z,6.75
2022-11-05T08:30:42.109Z,6.83
2022-11-05T08:33:13.378Z,6.74
2022-11-05T08:35:42.288Z,6.78
2022-11-05T08:38:15.512Z,7.03
2022-11-05T08:40:46.591Z,6.94
2022-11-05T08:43:15.600Z,7.03
2022-11-05T08:45:44.227Z,7.09
2022-11-05T08:48:15.918Z,7.08
2022-11-05T08:50:45.718Z,7.12
2022-11-05T08:53:16.610Z,7.51
2022-11-05T08:55:47.596Z,7.82
2022-11-05T08:58:17.537Z,7.73
2022-11-05T09:00:48.470Z,7.70
2022-11-05T09:03:17.995Z,7.78
2022-11-05T09:05:47.147Z,7.84
2022-11-05T09:08:19.509Z,7.76
2022-11-05T09:10:49.788Z,7.86
2022-11-05T09:13:20.302Z,8.04
2022-11-05T09:15:49.639Z,8.30
2022-11-05T09:18:20.250Z,8.44
2022-11-05T09:20:49.027Z,8.49
2022-11-05T09:23:19.023Z,8.44
2022-11-05T09:25:48.142Z,8.19
2022-11-05T09:28:18.415Z,8.22
2022-11-05T09:30:48.508Z,8.33
2022-11-05T09:33:19.192Z,8.45
2022-11-05T09:35:48.443Z,8.30
2022-11-05T09:38:18.696Z,8.55
2022-11-05T09:40:58.418Z,8.56
2022-11-05T09:43:33.636Z,8.56
2022-11-05T09:46:10.457Z,8.46
2022-11-05T09:48:42.084Z,8.35
2022-11-05T09:51:20.814Z,8.25
2022-11-05T09:53:54.075Z,8.10
2022-11-05T09:56:28.282Z,8.34
2022-11-05T09:59:03.400Z,8.60
2022-11-05T10:01:36.917Z,8.73
2022-11-05T10:04:13.478Z,8.44
2022-11-05T10:06:48.892Z,8.56
2022-11-05T10:09:27.736Z,8.76
2022-11-05T10:12:07.391Z,9.44
2022-11-05T10:14:44.040Z,9.73
2022-11-05T10:17:21.291Z,9.17
2022-11-05T10:19:55.404Z,9.26
2022-11-05T10:22:24.141Z,9.95
2022-11-05T10:24:54.482Z,9.93
2022-11-05T10:27:25.492Z,10.17
2022-11-05T10:29:54.114Z,9.92
2022-11-05T10:32:30.207Z,9.83
2022-11-05T10:35:03.325Z,9.38
2022-11-05T10:37:37.026Z,9.31
2022-11-05T10:40:19.547Z,9.76
2022-11-05T10:43:01.445Z,9.74
2022-11-05T10:45:45.290Z,9.98
2022-11-05T10:48:43.844Z,10.04
2022-11-05T10:51:14.006Z,10.39
2022-11-05T10:53:58.712Z,10.58
2022-11-05T10:56:33.892Z,10.69
2022-11-05T10:59:09.383Z,10.50
2022-11-05T11:01:41.186Z,10.79
2022-11-05T11:04:18.170Z,10.73
2022-11-05T11:06:52.041Z,10.71
2022-11-05T11:09:25.205Z,10.19
2022-11-05T11:12:03.068Z,10.15
2022-11-05T11:14:32.028Z,9.96
2022-11-05T11:17:26.973Z,10.11
2022-11-05T11:20:29.023Z,9.79
2022-11-05T11:23:06.849Z,9.64
2022-11-05T11:25:48.891Z,9.29
2022-11-05T11:28:23.893Z,9.25
2022-11-05T11:31:04.740Z,9.08
2022-11-05T11:33:35.953Z,8.77
2022-11-05T11:36:05.080Z,8.51
2022-11-05T11:38:36.990Z,8.35
2022-11-05T11:41:26.446Z,8.25
2022-11-05T11:44:03.370Z,8.15
2022-11-05T11:46:35.477Z,8.15
2022-11-05T11:49:05.042Z,8.19
2022-11-05T11:51:37.661Z,8.13
2022-11-05T11:54:18.959Z,8.10
2022-11-05T11:56:49.318Z,8.02
2022-11-05T11:59:53.985Z,7.94
2022-11-05T12:02:42.833Z,7.95
2022-11-05T12:05:30.979Z,8.15
2022-11-05T12:08:13.840Z,8.21
2022-11-05T12:10:58.919Z,8.35
2022-11-05T12:14:04.818Z,8.46
2022-11-05T12:16:59.274Z,8.57
2022-11-05T12:19:45.742Z,8.52
2022-11-05T12:22:24.508Z,8.65
2022-11-05T12:25:22.569Z,8.66
2022-11-05T12:28:16.438Z,8.52
2022-11-05T12:30:55.625Z,8.41
2022-11-05T12:33:42.991Z,8.51
2022-11-05T12:36:23.749Z,9.05
2022-11-05T12:39:15.608Z,9.27
2022-11-05T12:41:54.822Z,9.28
2022-11-05T12:44:41.998Z,9.31
2022-11-05T12:47:31.935Z,9.55
2022-11-05T12:50:21.520Z,9.33
2022-11-05T12:53:35.257Z,9.49
2022-11-05T12:56:13.320Z,10.53
2022-11-05T12:58:45.453Z,11.34
2022-11-05T13:01:22.006Z,12.03
2022-11-05T13:03:59.328Z,11.39
2022-11-05T13:06:39.681Z,9.93
2022-11-05T13:09:15.262Z,9.65
2022-11-05T13:11:52.374Z,9.50
2022-11-05T13:14:27.357Z,9.29
2022-11-05T13:17:01.196Z,9.15
2022-11-05T13:19:34.509Z,9.12
2022-11-05T13:22:12.896Z,9.40
2022-11-05T13:24:49.525Z,9.85
2022-11-05T13:27:45.837Z,10.00
2022-11-05T13:30:18.351Z,9.72
2022-11-05T13:32:53.458Z,9.30
2022-11-05T13:35:28.487Z,9.48
2022-11-05T13:38:25.011Z,10.68
2022-11-05T13:41:13.106Z,12.11
2022-11-05T13:43:59.796Z,12.61
2022-11-05T13:46:55.120Z,11.83
2022-11-05T13:50:03.251Z,11.22
2022-11-05T13:52:52.114Z,10.63
2022-11-05T13:55:49.797Z,9.77
2022-11-05T13:59:04.785Z,9.10
2022-11-05T14:01:49.371Z,8.78
2022-11-05T14:04:36.405Z,8.66
2022-11-05T14:07:11.775Z,8.61
2022-11-05T14:09:43.108Z,8.64
2022-11-05T14:12:25.480Z,8.47
2022-11-05T14:14:59.106Z,8.48
2022-11-05T14:17:33.413Z,8.46
2022-11-05T14:20:24.640Z,8.23
2022-11-05T14:22:53.754Z,8.10
2022-11-05T14:25:53.873Z,8.03
2022-11-05T14:28:44.722Z,7.93
2022-11-05T14:32:07.679Z,7.91
2022-11-05T14:34:54.701Z,8.01
2022-11-05T14:37:32.153Z,8.07
2022-11-05T14:40:31.518Z,8.06
2022-11-05T14:43:03.020Z,7.99
2022-11-05T14:45:37.216Z,8.05
2022-11-05T14:48:23.585Z,8.04
2022-11-05T14:50:52.893Z,8.01
2022-11-05T14:53:36.999Z,7.95
2022-11-05T14:56:09.993Z,7.88
2022-11-05T14:58:40.154Z,7.82
2022-11-05T15:01:31.352Z,7.86
2022-11-05T15:04:17.376Z,7.84
2022-11-05T15:07:29.855Z,7.79
2022-11-05T15:10:10.657Z,7.70
2022-11-05T15:12:45.772Z,7.58
2022-11-05T15:15:23.531Z,7.48
2022-11-05T15:18:02.802Z,7.42
2022-11-05T15:20:40.719Z,7.44
2022-11-05T15:23:15.559Z,7.46
2022-11-05T15:25:53.704Z,7.45
2022-11-05T15:28:33.825Z,7.44
2022-11-05T15:31:06.095Z,7.42
2022-11-05T15:33:35.737Z,7.39
2022-11-05T15:36:12.666Z,7.37
2022-11-05T15:38:56.571Z,7.32
2022-11-05T15:41:34.683Z,7.34
2022-11-05T15:44:03.369Z,7.41
2022-11-05T15:46:32.050Z,7.39
2022-11-05T15:49:10.691Z,7.31
2022-11-05T15:51:39.340Z,7.31
2022-11-05T15:54:35.928Z,7.29
2022-11-05T15:57:05.516Z,7.28
2022-11-05T15:59:35.335Z,7.25
2022-11-05T16:02:28.761Z,7.16
2022-11-05T16:05:00.667Z,7.12
2022-11-05T16:07:30.096Z,7.14
2022-11-05T16:10:01.669Z,7.12
2022-11-05T16:12:36.139Z,7.08
2022-11-05T16:15:21.127Z,7.00
2022-11-05T16:17:54.550Z,6.92
2022-11-05T16:20:32.791Z,6.86
2022-11-05T16:23:04.158Z,6.76
2022-11-05T16:25:42.201Z,6.68
2022-11-05T16:28:23.199Z,6.65
2022-11-05T16:30:56.888Z,6.68
2022-11-05T16:33:27.473Z,6.72
2022-11-05T16:35:57.165Z,6.77
2022-11-05T16:38:26.115Z,6.82
2022-11-05T16:40:54.784Z,6.81
2022-11-05T16:43:25.430Z,6.80
2022-11-05T16:45:56.620Z,6.77
2022-11-05T16:48:25.980Z,6.71
2022-11-05T16:50:56.190Z,6.67
2022-11-05T16:53:25.253Z,6.61
2022-11-05T16:55:53.560Z,6.58
2022-11-05T16:58:24.076Z,6.48
2022-11-05T17:01:03.064Z,6.42
2022-11-05T17:03:31.614Z,6.31
2022-11-05T17:06:01.448Z,6.28
2022-11-05T17:08:30.767Z,6.08
2022-11-05T17:10:59.152Z,6.01
2022-11-05T17:13:27.483Z,5.82
2022-11-05T17:15:56.075Z,5.64
2022-11-05T17:18:25.293Z,5.57
2022-11-05T17:20:56.435Z,5.58
2022-11-05T17:23:28.775Z,5.65
2022-11-05T17:26:02.943Z,5.73
2022-11-05T17:28:32.112Z,5.76
2022-11-05T17:31:01.572Z,5.86
2022-11-05T17:33:30.915Z,5.90
2022-11-05T17:35:59.522Z,5.99
2022-11-05T17:38:29.187Z,6.07
2022-11-05T17:40:57.827Z,6.13
2022-11-05T17:43:26.216Z,6.14
2022-11-05T17:46:01.496Z,6.17
2022-11-05T17:48:32.854Z,6.13
2022-11-05T17:51:01.524Z,6.17
2022-11-05T17:53:31.997Z,6.36
2022-11-05T17:56:00.639Z,6.45
2022-11-05T17:58:29.062Z,6.51
2022-11-05T18:00:57.656Z,6.56
2022-11-05T18:03:26.315Z,6.62
2022-11-05T18:05:54.899Z,6.66
2022-11-05T18:08:23.466Z,6.75
2022-11-05T18:10:54.846Z,6.78
2022-11-05T18:13:23.446Z,6.75
2022-11-05T18:15:54.203Z,6.78
2022-11-05T18:18:23.157Z,6.86
2022-11-05T18:20:51.760Z,6.84
2022-11-05T18:23:21.272Z,6.83
2022-11-05T18:25:49.622Z,6.79
2022-11-05T18:28:19.345Z,6.86
2022-11-05T18:30:47.993Z,6.82
2022-11-05T18:33:16.629Z,6.75
2022-11-05T18:35:45.544Z,6.77
2022-11-05T18:38:14.119Z,6.77
2022-11-05T18:40:42.772Z,6.82
2022-11-05T18:43:11.593Z,6.69
2022-11-05T18:45:41.523Z,6.52
2022-11-05T18:48:10.836Z,6.45
2022-11-05T18:50:41.200Z,6.41
2022-11-05T18:53:09.780Z,6.50
2022-11-05T18:55:40.429Z,6.46
2022-11-05T18:58:09.210Z,6.48
2022-11-05T19:00:41.466Z,6.46
2022-11-05T19:03:10.688Z,6.41
2022-11-05T19:05:39.321Z,6.38
2022-11-05T19:08:07.929Z,6.47
2022-11-05T19:10:36.536Z,6.45
2022-11-05T19:13:05.143Z,6.43
2022-11-05T19:15:33.747Z,6.49
2022-11-05T19:18:03.657Z,6.50
2022-11-05T19:20:37.472Z,6.51
2022-11-05T19:23:06.639Z,6.50
2022-11-05T19:25:34.991Z,6.48
2022-11-05T19:28:03.589Z,6.50
2022-11-05T19:30:32.217Z,6.48
2022-11-05T19:33:01.812Z,6.57
2022-11-05T19:35:30.475Z,6.66
2022-11-05T19:37:58.714Z,6.56
2022-11-05T19:40:27.025Z,6.59
2022-11-05T19:42:55.276Z,6.63
2022-11-05T19:45:43.662Z,6.62
2022-11-05T19:48:19.090Z,6.67
2022-11-05T19:50:48.483Z,6.63
2022-11-05T19:53:16.856Z,6.56
2022-11-05T19:55:45.242Z,6.53
2022-11-05T19:58:14.187Z,6.47
2022-11-05T20:00:43.162Z,6.44
2022-11-05T20:03:13.336Z,6.42
2022-11-05T20:05:41.985Z,6.35
2022-11-05T20:08:10.934Z,6.29
2022-11-05T20:10:39.725Z,6.27
2022-11-05T20:13:08.323Z,6.23
2022-11-05T20:15:39.753Z,6.23
2022-11-05T20:18:08.770Z,6.28
2022-11-05T20:20:38.821Z,6.39
2022-11-05T20:23:07.386Z,6.45
2022-11-05T20:25:36.097Z,6.36
2022-11-05T20:28:05.886Z,6.29
2022-11-05T20:30:34.661Z,6.28
2022-11-05T20:33:03.300Z,6.22
2022-11-05T20:35:31.922Z,6.17
2022-11-05T20:38:01.561Z,6.09
2022-11-05T20:40:30.189Z,6.08
2022-11-05T20:42:58.814Z,6.07
2022-11-05T20:45:27.492Z,6.03
2022-11-05T20:47:56.100Z,6.12
2022-11-05T20:50:24.730Z,6.14
2022-11-05T20:52:53.386Z,6.06
2022-11-05T20:55:23.120Z,5.97
2022-11-05T20:57:51.705Z,5.82
2022-11-05T21:00:20.308Z,5.63
2022-11-05T21:02:49.039Z,5.44
2022-11-05T21:05:17.770Z,5.24
2022-11-05T21:07:46.385Z,5.13
2022-11-05T21:10:14.718Z,5.04
2022-11-05T21:12:44.923Z,4.94
2022-11-05T21:15:13.749Z,4.88
2022-11-05T21:17:42.334Z,4.84
2022-11-05T21:20:11.390Z,4.72
2022-11-05T21:22:43.015Z,4.66
2022-11-05T21:25:11.457Z,4.54
2022-11-05T21:27:43.525Z,4.31
2022-11-05T21:30:14.956Z,4.16
2022-11-05T21:32:43.557Z,4.08
2022-11-05T21:35:12.211Z,4.05
2022-11-05T21:37:40.770Z,3.95
2022-11-05T21:40:10.550Z,4.01
2022-11-05T21:42:39.171Z,4.02
2022-11-05T21:45:08.880Z,3.94
2022-11-05T21:47:38.542Z,3.99
2022-11-05T21:50:08.024Z,4.03
2022-11-05T21:52:54.515Z,4.07
2022-11-05T21:55:40.537Z,3.99
2022-11-05T21:58:33.950Z,3.84
2022-11-05T22:01:03.116Z,3.67
2022-11-05T22:03:33.073Z,3.49
2022-11-05T22:06:01.699Z,3.45
2022-11-05T22:08:30.375Z,3.39
2022-11-05T22:10:58.997Z,3.44
2022-11-05T22:13:27.649Z,3.49
2022-11-05T22:15:56.734Z,3.44
2022-11-05T22:18:25.153Z,3.33
2022-11-05T22:20:54.810Z,3.14
2022-11-05T22:23:23.462Z,2.97
2022-11-05T22:25:59.085Z,2.87
2022-11-05T22:28:27.491Z,3.03
2022-11-05T22:30:56.130Z,3.19
2022-11-05T22:33:24.793Z,3.34
2022-11-05T22:35:54.759Z,3.78
2022-11-05T22:38:23.357Z,3.71
2022-11-05T22:40:51.632Z,3.62
2022-11-05T22:43:20.278Z,3.48
2022-11-05T22:45:48.922Z,3.33
2022-11-05T22:48:17.577Z,3.21
2022-11-05T22:50:46.186Z,3.14
2022-11-05T22:53:16.153Z,3.00
2022-11-05T22:55:44.805Z,2.73
2022-11-05T22:58:13.952Z,2.59
2022-11-05T23:00:43.196Z,2.47
2022-11-05T23:03:11.617Z,2.37
2022-11-05T23:05:39.958Z,2.38
2022-11-05T23:08:25.843Z,2.56
2022-11-05T23:11:13.068Z,2.87
2022-11-05T23:13:41.663Z,3.00
2022-11-05T23:16:27.648Z,3.03
2022-11-05T23:19:13.606Z,3.25
2022-11-05T23:22:04.972Z,3.35
2022-11-05T23:24:33.851Z,3.38
2022-11-05T23:27:03.838Z,3.28
2022-11-05T23:29:32.492Z,3.29
2022-11-05T23:32:18.882Z,3.32
2022-11-05T23:34:47.228Z,3.28
2022-11-05T23:37:33.680Z,3.34
2022-11-05T23:40:01.993Z,3.39
2022-11-05T23:42:49.187Z,3.63
2022-11-05T23:45:46.872Z,3.72
2022-11-05T23:48:23.848Z,3.88
2022-11-05T23:50:57.734Z,3.84
2022-11-05T23:53:26.697Z,3.81
2022-11-05T23:55:58.995Z,3.75
2022-11-05T23:58:29.447Z,3.72
